createdAt,value
2023-03-17T12:41:39.448Z,20.26
2023-03-17T12:42:40.395Z,20.18
2023-03-17T12:43:40.843Z,19.92
2023-03-17T12:44:40.773Z,19.62
2023-03-17T12:45:40.389Z,19.65
2023-03-17T12:46:40.527Z,19.31
2023-03-17T12:47:40.340Z,18.88
2023-03-17T12:48:40.392Z,18.58
2023-03-17T12:49:40.343Z,18.78
2023-03-17T12:50:40.312Z,18.55
2023-03-17T12:51:40.307Z,18.60
2023-03-17T12:52:40.291Z,18.55
2023-03-17T12:53:40.350Z,18.73
2023-03-17T12:54:40.262Z,18.65
2023-03-17T12:55:40.268Z,18.81
2023-03-17T12:56:40.244Z,19.07
2023-03-17T12:57:40.256Z,18.87
2023-03-17T12:58:40.240Z,18.52
2023-03-17T12:59:40.228Z,18.70
2023-03-17T13:00:40.320Z,18.80
2023-03-17T13:01:40.299Z,18.60
2023-03-17T13:02:40.199Z,18.73
2023-03-17T13:03:40.364Z,18.75
2023-03-17T13:04:40.164Z,18.90
2023-03-17T13:05:40.151Z,19.04
2023-03-17T13:06:40.966Z,18.99
2023-03-17T13:07:40.137Z,19.14
2023-03-17T13:08:40.147Z,19.26
2023-03-17T13:09:40.114Z,19.08
2023-03-17T13:10:40.225Z,18.99
2023-03-17T13:11:40.098Z,18.92
2023-03-17T13:12:40.112Z,18.81
2023-03-17T13:13:40.099Z,18.95
2023-03-17T13:14:40.064Z,19.07
2023-03-17T13:15:40.055Z,19.46
2023-03-17T13:16:40.050Z,19.55
2023-03-17T13:17:40.051Z,19.62
2023-03-17T13:18:40.045Z,19.65
2023-03-17T13:19:40.035Z,19.51
2023-03-17T13:20:40.005Z,19.62
2023-03-17T13:21:40.003Z,19.73
2023-03-17T13:22:40.015Z,19.81
2023-03-17T13:23:40.057Z,19.59
2023-03-17T13:24:39.964Z,19.59
2023-03-17T13:25:39.954Z,19.11
2023-03-17T13:26:39.949Z,18.99
2023-03-17T13:27:39.946Z,18.63
2023-03-17T13:28:39.935Z,18.36
2023-03-17T13:29:39.925Z,18.58
2023-03-17T13:30:39.907Z,18.72
2023-03-17T13:31:39.948Z,18.60
2023-03-17T13:32:39.944Z,18.69
2023-03-17T13:33:39.878Z,18.98
2023-03-17T13:34:39.861Z,19.19
2023-03-17T13:35:39.904Z,19.36
2023-03-17T13:36:39.831Z,19.00
2023-03-17T13:37:39.826Z,18.98
2023-03-17T13:38:39.850Z,18.78
2023-03-17T13:39:39.817Z,18.62
2023-03-17T13:40:39.793Z,18.75
2023-03-17T13:41:39.800Z,18.80
2023-03-17T13:42:39.777Z,18.69
2023-03-17T13:43:41.321Z,18.69
2023-03-17T13:44:39.768Z,18.78
2023-03-17T13:45:39.763Z,18.73
2023-03-17T13:46:39.938Z,19.00
2023-03-17T13:47:39.729Z,18.84
2023-03-17T13:48:39.743Z,18.85
2023-03-17T13:49:39.758Z,18.84
2023-03-17T13:50:39.697Z,18.99
2023-03-17T13:51:41.904Z,18.94
2023-03-17T13:52:39.686Z,18.90
2023-03-17T13:53:39.687Z,18.73
2023-03-17T13:54:39.691Z,18.67
2023-03-17T13:55:39.776Z,18.63
2023-03-17T13:56:39.646Z,18.45
2023-03-17T13:57:39.629Z,18.51
2023-03-17T13:58:39.620Z,18.58
2023-03-17T13:59:39.685Z,18.50
2023-03-17T14:00:39.631Z,18.36
2023-03-17T14:01:39.579Z,18.41
2023-03-17T14:02:39.575Z,18.50
2023-03-17T14:03:39.653Z,18.50
2023-03-17T14:04:39.581Z,18.42
2023-03-17T14:05:39.547Z,18.54
2023-03-17T14:06:39.537Z,18.55
2023-03-17T14:07:39.518Z,18.30
2023-03-17T14:08:39.508Z,18.23
2023-03-17T14:09:39.534Z,18.20
2023-03-17T14:10:39.490Z,18.12
2023-03-17T14:11:39.481Z,18.05
2023-03-17T14:12:39.481Z,18.07
2023-03-17T14:13:39.472Z,18.12
2023-03-17T14:14:39.461Z,18.12
2023-03-17T14:15:39.442Z,18.25
2023-03-17T14:16:39.446Z,18.37
2023-03-17T14:17:39.414Z,18.45
2023-03-17T14:18:39.433Z,18.25
2023-03-17T14:19:39.399Z,18.10
2023-03-17T14:20:39.391Z,18.02
2023-03-17T14:21:39.408Z,18.03
2023-03-17T14:22:39.370Z,17.84
2023-03-17T14:23:39.378Z,17.77
2023-03-17T14:24:39.350Z,17.72
2023-03-17T14:25:39.349Z,17.74
2023-03-17T14:26:39.331Z,17.79
2023-03-17T14:27:39.320Z,17.79
2023-03-17T14:28:39.332Z,17.75
2023-03-17T14:29:39.289Z,17.81
2023-03-17T14:30:39.293Z,17.95
2023-03-17T14:31:39.328Z,17.99
2023-03-17T14:32:39.281Z,17.99
2023-03-17T14:33:39.287Z,18.00
2023-03-17T14:34:39.255Z,18.00
2023-03-17T14:35:39.343Z,17.86
2023-03-17T14:36:39.224Z,17.84
2023-03-17T14:37:39.216Z,17.87
2023-03-17T14:38:39.247Z,17.87
2023-03-17T14:39:39.189Z,17.95
2023-03-17T14:40:39.187Z,17.89
2023-03-17T14:41:39.180Z,17.82
2023-03-17T14:42:39.160Z,17.78
2023-03-17T14:43:39.179Z,17.81
2023-03-17T14:44:39.151Z,17.78
2023-03-17T14:45:39.144Z,17.62
2023-03-17T14:46:39.129Z,17.56
2023-03-17T14:47:39.111Z,17.66
2023-03-17T14:48:39.108Z,17.72
2023-03-17T14:49:39.147Z,17.62
2023-03-17T14:50:39.089Z,17.58
2023-03-17T14:51:39.109Z,17.48
2023-03-17T14:52:39.054Z,17.48
2023-03-17T14:53:39.051Z,17.38
2023-03-17T14:54:39.062Z,17.49
2023-03-17T14:55:39.677Z,17.56
2023-03-17T14:56:39.021Z,17.62
2023-03-17T14:57:38.998Z,17.46
2023-03-17T14:58:38.999Z,17.36
2023-03-17T14:59:39.006Z,17.34
2023-03-17T15:00:38.977Z,17.26
2023-03-17T15:01:39.021Z,17.37
2023-03-17T15:02:39.013Z,17.25
2023-03-17T15:03:38.943Z,17.28
2023-03-17T15:04:38.931Z,17.30
2023-03-17T15:05:38.994Z,17.22
2023-03-17T15:06:38.928Z,17.08
2023-03-17T15:07:38.898Z,17.15
2023-03-17T15:08:38.887Z,17.18
2023-03-17T15:09:38.889Z,17.07
2023-03-17T15:10:38.901Z,17.07
2023-03-17T15:11:38.855Z,17.08
2023-03-17T15:12:38.856Z,17.06
2023-03-17T15:13:38.856Z,17.04
2023-03-17T15:14:38.926Z,17.03
2023-03-17T15:15:38.832Z,16.94
2023-03-17T15:16:38.887Z,16.89
2023-03-17T15:17:38.802Z,16.89
2023-03-17T15:18:38.787Z,16.91
2023-03-17T15:19:38.805Z,16.83
2023-03-17T15:20:38.768Z,16.86
2023-03-17T15:21:38.768Z,16.89
2023-03-17T15:22:38.747Z,16.94
2023-03-17T15:23:38.733Z,16.89
2023-03-17T15:24:38.744Z,16.93
2023-03-17T15:25:38.745Z,16.94
2023-03-17T15:26:38.704Z,16.89
2023-03-17T15:27:38.691Z,16.86
2023-03-17T15:28:38.685Z,16.82
2023-03-17T15:29:38.667Z,16.82
2023-03-17T15:30:47.207Z,16.88
2023-03-17T15:31:38.681Z,16.82
2023-03-17T15:32:38.730Z,16.82
2023-03-17T15:33:38.630Z,16.81
2023-03-17T15:34:38.642Z,16.83
2023-03-17T15:35:38.620Z,16.79
2023-03-17T15:36:38.600Z,16.81
2023-03-17T15:37:38.579Z,16.81
2023-03-17T15:38:38.576Z,16.79
2023-03-17T15:39:38.591Z,16.78
2023-03-17T15:40:38.565Z,16.71
2023-03-17T15:41:38.545Z,16.71
2023-03-17T15:42:38.543Z,16.68
2023-03-17T15:43:38.526Z,16.64
2023-03-17T15:44:38.535Z,16.60
2023-03-17T15:45:38.497Z,16.61
2023-03-17T15:46:38.509Z,16.60
2023-03-17T15:47:38.492Z,16.60
2023-03-17T15:48:38.486Z,16.53
2023-03-17T15:49:38.462Z,16.56
2023-03-17T15:50:38.463Z,16.53
2023-03-17T15:51:38.435Z,16.52
2023-03-17T15:52:38.430Z,16.50
2023-03-17T15:53:38.416Z,16.49
2023-03-17T15:54:38.412Z,16.45
2023-03-17T15:55:38.507Z,16.41
2023-03-17T15:56:38.385Z,16.39
2023-03-17T15:57:38.382Z,16.35
2023-03-17T15:58:38.369Z,16.35
2023-03-17T15:59:38.343Z,16.34
2023-03-17T16:00:38.382Z,16.30
2023-03-17T16:01:38.377Z,16.31
2023-03-17T16:02:38.328Z,16.31
2023-03-17T16:03:38.309Z,16.33
2023-03-17T16:04:38.344Z,16.31
2023-03-17T16:05:38.299Z,16.30
2023-03-17T16:06:38.272Z,16.30
2023-03-17T16:07:38.255Z,16.21
2023-03-17T16:08:38.247Z,16.17
2023-03-17T16:09:38.238Z,16.21
2023-03-17T16:10:38.281Z,16.21
2023-03-17T16:11:40.350Z,16.21
2023-03-17T16:12:38.210Z,16.20
2023-03-17T16:13:38.198Z,16.21
2023-03-17T16:14:38.190Z,16.23
2023-03-17T16:15:38.244Z,16.15
2023-03-17T16:16:38.166Z,16.15
2023-03-17T16:17:38.156Z,16.11
2023-03-17T16:18:38.166Z,16.09
2023-03-17T16:19:38.144Z,16.05
2023-03-17T16:20:38.141Z,16.05
2023-03-17T16:21:38.106Z,16.02
2023-03-17T16:22:38.129Z,16.04
2023-03-17T16:23:38.087Z,16.00
2023-03-17T16:24:38.105Z,16.01
2023-03-17T16:25:38.093Z,15.96
2023-03-17T16:26:38.058Z,15.94
2023-03-17T16:27:38.042Z,15.92
2023-03-17T16:28:38.038Z,15.94
2023-03-17T16:29:38.035Z,15.97
2023-03-17T16:30:38.041Z,15.96
2023-03-17T16:31:38.068Z,15.96
2023-03-17T16:32:38.061Z,15.93
2023-03-17T16:33:38.004Z,15.84
2023-03-17T16:34:37.978Z,15.83
2023-03-17T16:35:38.008Z,15.82
2023-03-17T16:36:37.950Z,15.82
2023-03-17T16:37:37.945Z,15.76
2023-03-17T16:38:37.938Z,15.75
2023-03-17T16:39:37.919Z,15.75
2023-03-17T16:40:37.908Z,15.78
2023-03-17T16:41:37.941Z,15.75
2023-03-17T16:42:37.891Z,15.80
2023-03-17T16:43:37.983Z,15.80
2023-03-17T16:44:37.916Z,15.72
2023-03-17T16:45:37.884Z,15.74
2023-03-17T16:46:37.907Z,15.76
2023-03-17T16:47:37.835Z,15.80
2023-03-17T16:48:37.823Z,15.76
2023-03-17T16:49:37.815Z,15.74
2023-03-17T16:50:37.836Z,15.68
2023-03-17T16:51:37.793Z,15.67
2023-03-17T16:52:37.783Z,15.67
2023-03-17T16:53:37.774Z,15.69
2023-03-17T16:54:37.764Z,15.62
2023-03-17T16:55:37.785Z,15.54
2023-03-17T16:56:37.819Z,15.50
2023-03-17T16:57:37.735Z,15.44
2023-03-17T16:58:37.727Z,15.38
2023-03-17T16:59:37.717Z,15.29
2023-03-17T17:00:37.724Z,15.29
2023-03-17T17:01:37.712Z,15.31
2023-03-17T17:02:37.794Z,15.31
2023-03-17T17:03:37.665Z,15.31
2023-03-17T17:04:37.654Z,15.36
2023-03-17T17:05:37.664Z,15.29
2023-03-17T17:06:37.655Z,15.27
2023-03-17T17:07:37.630Z,15.27
2023-03-17T17:08:37.620Z,15.34
2023-03-17T17:09:37.600Z,15.34
2023-03-17T17:10:37.608Z,15.32
2023-03-17T17:11:37.602Z,15.36
2023-03-17T17:12:37.585Z,15.35
2023-03-17T17:13:37.562Z,15.32
2023-03-17T17:14:37.564Z,15.28
2023-03-17T17:15:37.553Z,15.27
2023-03-17T17:16:37.643Z,15.21
2023-03-17T17:17:37.517Z,15.25
2023-03-17T17:18:38.100Z,15.23
2023-03-17T17:19:37.495Z,15.20
2023-03-17T17:20:37.494Z,15.16
2023-03-17T17:21:37.495Z,15.13
2023-03-17T17:22:37.480Z,15.14
2023-03-17T17:23:37.471Z,15.13
2023-03-17T17:24:37.463Z,15.16
2023-03-17T17:25:37.442Z,15.23
2023-03-17T17:26:37.444Z,15.27
2023-03-17T17:27:37.410Z,15.25
2023-03-17T17:28:37.407Z,15.23
2023-03-17T17:29:37.395Z,15.16
2023-03-17T17:30:37.393Z,15.11
2023-03-17T17:31:37.446Z,15.10
2023-03-17T17:32:37.384Z,15.09
2023-03-17T17:33:37.389Z,15.03
2023-03-17T17:34:37.361Z,15.03
2023-03-17T17:35:37.348Z,14.98
2023-03-17T17:36:37.350Z,14.92
2023-03-17T17:37:37.301Z,14.89
2023-03-17T17:38:37.303Z,14.91
2023-03-17T17:39:37.283Z,14.89
2023-03-17T17:40:37.293Z,14.91
2023-03-17T17:41:37.272Z,14.94
2023-03-17T17:42:37.260Z,14.94
2023-03-17T17:43:37.282Z,14.92
2023-03-17T17:44:37.289Z,14.92
2023-03-17T17:45:37.222Z,14.84
2023-03-17T17:46:37.328Z,14.81
2023-03-17T17:47:37.205Z,14.84
2023-03-17T17:48:37.194Z,14.86
2023-03-17T17:49:37.176Z,14.81
2023-03-17T17:50:37.169Z,14.80
2023-03-17T17:51:37.198Z,14.73
2023-03-17T17:52:37.146Z,14.68
2023-03-17T17:53:37.172Z,14.61
2023-03-17T17:54:37.136Z,14.58
2023-03-17T17:55:37.119Z,14.52
2023-03-17T17:56:37.143Z,14.47
2023-03-17T17:57:37.099Z,14.45
2023-03-17T17:58:37.085Z,14.42
2023-03-17T17:59:37.076Z,14.40
2023-03-17T18:00:37.091Z,14.37
2023-03-17T18:01:37.111Z,14.36
2023-03-17T18:02:37.043Z,14.27
2023-03-17T18:03:37.026Z,14.25
2023-03-17T18:04:37.179Z,14.21
2023-03-17T18:05:37.010Z,14.12
2023-03-17T18:06:37.012Z,14.06
2023-03-17T18:07:36.989Z,14.00
2023-03-17T18:08:36.977Z,13.92
2023-03-17T18:09:36.994Z,13.95
2023-03-17T18:10:36.964Z,13.99
2023-03-17T18:11:36.978Z,14.00
2023-03-17T18:12:36.928Z,14.06
2023-03-17T18:13:37.048Z,14.07
2023-03-17T18:14:36.934Z,14.18
2023-03-17T18:15:36.932Z,14.25
2023-03-17T18:16:36.977Z,14.32
2023-03-17T18:17:36.903Z,14.42
2023-03-17T18:18:36.872Z,14.50
2023-03-17T18:19:36.865Z,14.57
2023-03-17T18:20:36.870Z,14.55
2023-03-17T18:21:36.883Z,14.54
2023-03-17T18:22:36.837Z,14.54
2023-03-17T18:23:36.826Z,14.54
2023-03-17T18:24:36.803Z,14.52
2023-03-17T18:25:36.807Z,14.54
2023-03-17T18:26:36.809Z,14.51
2023-03-17T18:27:36.789Z,14.43
2023-03-17T18:28:36.800Z,14.36
2023-03-17T18:29:36.806Z,14.28
2023-03-17T18:30:36.767Z,14.22
2023-03-17T18:31:37.378Z,14.17
2023-03-17T18:32:36.806Z,14.06
2023-03-17T18:33:36.718Z,14.06
2023-03-17T18:34:36.708Z,14.03
2023-03-17T18:35:36.738Z,14.03
2023-03-17T18:36:36.714Z,13.99
2023-03-17T18:37:36.679Z,13.96
2023-03-17T18:38:36.658Z,13.89
2023-03-17T18:39:36.662Z,13.91
2023-03-17T18:40:37.210Z,13.88
2023-03-17T18:41:36.664Z,13.95
2023-03-17T18:42:36.643Z,13.92
2023-03-17T18:43:36.629Z,13.88
2023-03-17T18:44:36.597Z,13.82
2023-03-17T18:45:36.642Z,13.79
2023-03-17T18:46:36.583Z,13.73
2023-03-17T18:47:36.602Z,13.63
2023-03-17T18:48:36.554Z,13.55
2023-03-17T18:49:36.553Z,13.49
2023-03-17T18:50:36.542Z,13.46
2023-03-17T18:51:36.546Z,13.45
2023-03-17T18:52:36.562Z,13.55
2023-03-17T18:53:36.515Z,13.59
2023-03-17T18:54:36.503Z,13.57
2023-03-17T18:55:36.503Z,13.55
2023-03-17T18:56:36.485Z,13.48
2023-03-17T18:57:36.516Z,13.46
2023-03-17T18:58:36.480Z,13.42
2023-03-17T18:59:36.451Z,13.41
2023-03-17T19:00:36.432Z,13.33
2023-03-17T19:01:36.538Z,13.38
2023-03-17T19:02:36.424Z,13.44
2023-03-17T19:03:36.452Z,13.49
2023-03-17T19:04:36.391Z,13.49
2023-03-17T19:05:36.395Z,13.46
2023-03-17T19:06:36.391Z,13.44
2023-03-17T19:07:37.970Z,13.39
2023-03-17T19:08:36.372Z,13.32
2023-03-17T19:09:36.356Z,13.23
2023-03-17T19:10:36.323Z,13.19
2023-03-17T19:11:36.340Z,13.10
2023-03-17T19:12:36.331Z,13.01
2023-03-17T19:13:36.300Z,13.07
2023-03-17T19:14:36.284Z,13.10
2023-03-17T19:15:36.271Z,13.10
2023-03-17T19:16:36.310Z,13.07
2023-03-17T19:17:36.263Z,13.08
2023-03-17T19:18:36.237Z,13.11
2023-03-17T19:19:36.235Z,13.10
2023-03-17T19:20:36.221Z,13.01
2023-03-17T19:21:36.240Z,13.00
2023-03-17T19:22:36.242Z,13.05
2023-03-17T19:23:36.192Z,13.11
2023-03-17T19:24:36.206Z,13.08
2023-03-17T19:25:36.170Z,13.07
2023-03-17T19:26:36.196Z,13.03
2023-03-17T19:27:36.149Z,12.97
2023-03-17T19:28:36.149Z,12.89
2023-03-17T19:29:36.132Z,12.77
2023-03-17T19:30:36.175Z,12.77
2023-03-17T19:31:36.133Z,12.82
2023-03-17T19:32:36.288Z,12.90
2023-03-17T19:33:36.099Z,12.95
2023-03-17T19:34:36.065Z,12.93
2023-03-17T19:35:36.091Z,12.93
2023-03-17T19:36:36.089Z,12.97
2023-03-17T19:37:36.054Z,13.00
2023-03-17T19:38:36.046Z,13.00
2023-03-17T19:39:36.027Z,13.07
2023-03-17T19:40:36.000Z,13.11
2023-03-17T19:41:36.252Z,13.14
2023-03-17T19:42:35.996Z,13.15
2023-03-17T19:43:41.748Z,13.15
2023-03-17T19:44:35.971Z,13.11
2023-03-17T19:45:35.960Z,13.10
2023-03-17T19:46:36.031Z,13.05
2023-03-17T19:47:35.932Z,13.04
2023-03-17T19:48:35.933Z,13.04
2023-03-17T19:49:35.917Z,13.04
2023-03-17T19:50:35.891Z,13.01
2023-03-17T19:51:35.899Z,13.05
2023-03-17T19:52:35.872Z,13.05
2023-03-17T19:53:35.920Z,12.97
2023-03-17T19:54:35.855Z,12.93
2023-03-17T19:55:35.914Z,12.90
2023-03-17T19:56:35.836Z,12.97
2023-03-17T19:57:35.854Z,13.03
2023-03-17T19:58:35.804Z,13.07
2023-03-17T19:59:35.811Z,13.07
2023-03-17T20:00:35.808Z,13.04
2023-03-17T20:01:35.839Z,13.01
2023-03-17T20:02:35.859Z,13.01
2023-03-17T20:03:35.829Z,12.93
2023-03-17T20:04:35.785Z,12.92
2023-03-17T20:05:35.754Z,12.87
2023-03-17T20:06:35.742Z,12.89
2023-03-17T20:07:35.772Z,12.96
2023-03-17T20:08:35.729Z,12.95
2023-03-17T20:09:35.698Z,12.93
2023-03-17T20:10:35.684Z,12.97
2023-03-17T20:11:35.681Z,12.96
2023-03-17T20:12:35.685Z,12.93
2023-03-17T20:13:35.682Z,13.00
2023-03-17T20:14:35.640Z,13.10
2023-03-17T20:15:35.656Z,13.15
2023-03-17T20:16:35.617Z,13.14
2023-03-17T20:17:35.620Z,13.08
2023-03-17T20:18:35.604Z,13.05
2023-03-17T20:19:35.596Z,13.05
2023-03-17T20:20:35.597Z,13.07
2023-03-17T20:21:35.583Z,13.05
2023-03-17T20:22:35.577Z,13.07
2023-03-17T20:23:35.569Z,13.11
2023-03-17T20:24:35.571Z,13.10
2023-03-17T20:25:35.533Z,13.11
2023-03-17T20:26:35.538Z,13.19
2023-03-17T20:27:35.520Z,13.17
2023-03-17T20:28:35.522Z,13.12
2023-03-17T20:29:35.478Z,13.15
2023-03-17T20:30:35.480Z,13.17
2023-03-17T20:31:35.500Z,13.17
2023-03-17T20:32:35.499Z,13.19
2023-03-17T20:33:35.448Z,13.14
2023-03-17T20:34:35.422Z,13.14
2023-03-17T20:35:35.475Z,13.10
2023-03-17T20:36:35.409Z,13.14
2023-03-17T20:37:35.405Z,13.15
2023-03-17T20:38:35.416Z,13.15
2023-03-17T20:39:35.382Z,13.22
2023-03-17T20:40:35.383Z,13.23
2023-03-17T20:41:35.350Z,13.20
2023-03-17T20:42:35.402Z,13.19
2023-03-17T20:43:35.353Z,13.17
2023-03-17T20:44:35.334Z,13.11
2023-03-17T20:45:35.322Z,13.08
2023-03-17T20:46:35.378Z,13.07
2023-03-17T20:47:35.319Z,13.03
2023-03-17T20:48:35.297Z,13.00
2023-03-17T20:49:35.267Z,13.01
2023-03-17T20:50:35.284Z,13.03
2023-03-17T20:51:35.240Z,13.00
2023-03-17T20:52:35.246Z,12.97
2023-03-17T20:53:35.218Z,12.97
2023-03-17T20:54:35.280Z,12.95
2023-03-17T20:55:35.188Z,12.92
2023-03-17T20:56:35.190Z,12.92
2023-03-17T20:57:35.201Z,12.90
2023-03-17T20:58:35.164Z,12.89
2023-03-17T20:59:35.151Z,12.90
2023-03-17T21:00:35.183Z,12.92
2023-03-17T21:01:35.180Z,12.90
2023-03-17T21:02:35.214Z,12.87
2023-03-17T21:03:35.121Z,12.82
2023-03-17T21:04:35.147Z,12.83
2023-03-17T21:05:35.157Z,12.83
2023-03-17T21:06:35.071Z,12.82
2023-03-17T21:07:35.071Z,12.83
2023-03-17T21:08:35.052Z,12.83
2023-03-17T21:09:35.042Z,12.75
2023-03-17T21:10:35.021Z,12.77
2023-03-17T21:11:35.022Z,12.75
2023-03-17T21:12:35.014Z,12.77
2023-03-17T21:13:35.001Z,12.75
2023-03-17T21:14:34.986Z,12.77
2023-03-17T21:15:34.979Z,12.75
2023-03-17T21:16:34.992Z,12.75
2023-03-17T21:17:34.972Z,12.72
2023-03-17T21:18:34.936Z,12.67
2023-03-17T21:19:34.934Z,12.62
2023-03-17T21:20:34.919Z,12.64
2023-03-17T21:21:34.908Z,12.67
2023-03-17T21:22:34.922Z,12.64
2023-03-17T21:23:34.885Z,12.65
2023-03-17T21:24:34.877Z,12.64
2023-03-17T21:25:34.869Z,12.72
2023-03-17T21:26:34.846Z,12.70
2023-03-17T21:27:34.886Z,12.70
2023-03-17T21:28:34.828Z,12.71
2023-03-17T21:29:34.823Z,12.65
2023-03-17T21:30:34.808Z,12.67
2023-03-17T21:31:34.826Z,12.59
2023-03-17T21:32:34.813Z,12.56
2023-03-17T21:33:34.774Z,12.56
2023-03-17T21:34:34.781Z,12.56
2023-03-17T21:35:34.849Z,12.60
2023-03-17T21:36:34.729Z,12.59
2023-03-17T21:37:34.735Z,12.54
2023-03-17T21:38:34.719Z,12.52
2023-03-17T21:39:34.729Z,12.53
2023-03-17T21:40:34.702Z,12.50
2023-03-17T21:41:34.687Z,12.49
2023-03-17T21:42:34.705Z,12.46
2023-03-17T21:43:34.682Z,12.42
2023-03-17T21:44:34.654Z,12.42
2023-03-17T21:45:34.675Z,12.41
2023-03-17T21:46:34.627Z,12.39
2023-03-17T21:47:34.626Z,12.39
2023-03-17T21:48:34.666Z,12.38
2023-03-17T21:49:34.607Z,12.39
2023-03-17T21:50:35.077Z,12.39
2023-03-17T21:51:34.577Z,12.35
2023-03-17T21:52:34.558Z,12.32
2023-03-17T21:53:34.576Z,12.24
2023-03-17T21:54:34.540Z,12.20
2023-03-17T21:55:34.539Z,12.13
2023-03-17T21:56:34.521Z,12.05
2023-03-17T21:57:34.519Z,11.99
2023-03-17T21:58:34.516Z,11.94
2023-03-17T21:59:34.489Z,11.94
2023-03-17T22:00:44.746Z,12.01
2023-03-17T22:01:34.541Z,11.99
2023-03-17T22:02:34.449Z,11.99
2023-03-17T22:03:34.551Z,11.96
2023-03-17T22:04:34.429Z,11.94
2023-03-17T22:05:34.460Z,11.91
2023-03-17T22:06:34.412Z,11.91
2023-03-17T22:07:34.425Z,11.86
2023-03-17T22:08:34.398Z,11.80
2023-03-17T22:09:34.384Z,11.73
2023-03-17T22:10:34.469Z,11.70
2023-03-17T22:11:34.362Z,11.67
2023-03-17T22:12:34.402Z,11.64
2023-03-17T22:13:34.367Z,11.58
2023-03-17T22:14:34.329Z,11.49
2023-03-17T22:15:34.319Z,11.42
2023-03-17T22:16:34.330Z,11.43
2023-03-17T22:17:34.332Z,11.47
2023-03-17T22:18:34.298Z,11.54
2023-03-17T22:19:34.303Z,11.49
2023-03-17T22:20:34.263Z,11.55
2023-03-17T22:21:34.245Z,11.61
2023-03-17T22:22:34.243Z,11.60
2023-03-17T22:23:34.258Z,11.55
2023-03-17T22:24:34.218Z,11.57
2023-03-17T22:25:34.232Z,11.47
2023-03-17T22:26:34.194Z,11.40
2023-03-17T22:27:34.177Z,11.35
2023-03-17T22:28:34.192Z,11.25
2023-03-17T22:29:34.161Z,11.21
2023-03-17T22:30:34.523Z,11.19
2023-03-17T22:31:34.156Z,11.18
2023-03-17T22:32:34.168Z,11.14
2023-03-17T22:33:34.143Z,11.14
2023-03-17T22:34:34.117Z,11.09
2023-03-17T22:35:34.121Z,11.18
2023-03-17T22:36:34.085Z,11.18
2023-03-17T22:37:34.072Z,11.19
2023-03-17T22:38:34.076Z,11.14
2023-03-17T22:39:34.053Z,11.07
2023-03-17T22:40:34.533Z,11.02
2023-03-17T22:41:34.035Z,10.92
2023-03-17T22:42:34.023Z,10.86
2023-03-17T22:43:34.025Z,10.82
2023-03-17T22:44:34.009Z,10.84
2023-03-17T22:45:34.099Z,10.86
2023-03-17T22:46:33.986Z,10.91
2023-03-17T22:47:33.966Z,10.96
2023-03-17T22:48:33.987Z,10.92
2023-03-17T22:49:33.944Z,10.91
2023-03-17T22:50:34.356Z,10.88
2023-03-17T22:51:33.930Z,10.92
2023-03-17T22:52:33.920Z,10.97
2023-03-17T22:53:33.936Z,10.97
2023-03-17T22:54:33.901Z,11.00
2023-03-17T22:55:33.893Z,11.14
2023-03-17T22:56:33.903Z,11.18
2023-03-17T22:57:33.865Z,11.15
2023-03-17T22:58:33.885Z,11.06
2023-03-17T22:59:33.845Z,10.99
2023-03-17T23:00:33.849Z,11.02
2023-03-17T23:01:33.946Z,11.02
2023-03-17T23:02:33.812Z,10.99
2023-03-17T23:03:33.889Z,10.94
2023-03-17T23:04:33.789Z,10.86
2023-03-17T23:05:33.789Z,10.81
2023-03-17T23:06:33.771Z,10.74
2023-03-17T23:07:44.289Z,10.70
2023-03-17T23:08:33.780Z,10.61
2023-03-17T23:09:33.760Z,10.56
2023-03-17T23:10:33.956Z,10.52
2023-03-17T23:11:33.717Z,10.48
2023-03-17T23:12:33.711Z,10.45
2023-03-17T23:13:33.718Z,10.40
2023-03-17T23:14:33.696Z,10.36
2023-03-17T23:15:33.671Z,10.34
2023-03-17T23:16:33.748Z,10.38
2023-03-17T23:17:33.667Z,10.44
2023-03-17T23:18:33.650Z,10.45
2023-03-17T23:19:33.631Z,10.45
2023-03-17T23:20:34.152Z,10.45
2023-03-17T23:21:33.640Z,10.47
2023-03-17T23:22:33.600Z,10.48
2023-03-17T23:23:33.700Z,10.44
2023-03-17T23:24:33.581Z,10.41
2023-03-17T23:25:33.579Z,10.40
2023-03-17T23:26:33.578Z,10.44
2023-03-17T23:27:33.552Z,10.45
2023-03-17T23:28:33.560Z,10.47
2023-03-17T23:29:33.530Z,10.45
2023-03-17T23:30:33.937Z,10.48
2023-03-17T23:31:33.508Z,10.51
2023-03-17T23:32:33.555Z,10.47
2023-03-17T23:33:33.512Z,10.51
2023-03-17T23:34:33.482Z,10.45
2023-03-17T23:35:33.510Z,10.40
2023-03-17T23:36:33.495Z,10.38
2023-03-17T23:37:33.439Z,10.36
2023-03-17T23:38:33.449Z,10.34
2023-03-17T23:39:33.427Z,10.36
2023-03-17T23:40:33.911Z,10.38
2023-03-17T23:41:33.464Z,10.36
2023-03-17T23:42:33.395Z,10.34
2023-03-17T23:43:33.387Z,10.34
2023-03-17T23:44:33.384Z,10.30
2023-03-17T23:45:33.359Z,10.27
2023-03-17T23:46:33.457Z,10.26
2023-03-17T23:47:33.342Z,10.27
2023-03-17T23:48:33.328Z,10.29
2023-03-17T23:49:33.321Z,10.32
2023-03-17T23:50:33.831Z,10.33
2023-03-17T23:51:33.341Z,10.34
2023-03-17T23:52:33.286Z,10.32
2023-03-17T23:53:33.281Z,10.29
2023-03-17T23:54:33.279Z,10.32
2023-03-17T23:55:33.257Z,10.32
2023-03-17T23:56:33.288Z,10.38
2023-03-17T23:57:33.233Z,10.42
2023-03-17T23:58:33.270Z,10.44
2023-03-17T23:59:33.227Z,10.42
